createdAt,value
2023-09-28T00:00:47.572Z,13.90
2023-09-28T00:03:19.704Z,13.90
2023-09-28T00:05:52.341Z,13.80
2023-09-28T00:08:25.052Z,13.90
2023-09-28T00:10:57.177Z,14.10
2023-09-28T00:13:29.291Z,14.10
2023-09-28T00:16:01.902Z,14.10
2023-09-28T00:18:34.934Z,14.10
2023-09-28T00:21:07.870Z,14.10
2023-09-28T00:23:40.102Z,14.10
2023-09-28T00:26:13.657Z,14.00
2023-09-28T00:28:48.128Z,14.00
2023-09-28T00:31:20.713Z,14.00
2023-09-28T00:33:54.221Z,14.00
2023-09-28T00:36:26.499Z,14.00
2023-09-28T00:38:58.553Z,13.90
2023-09-28T00:41:30.701Z,13.80
2023-09-28T00:44:03.056Z,13.80
2023-09-28T00:46:35.386Z,13.70
2023-09-28T00:49:07.536Z,13.80
2023-09-28T00:51:40.668Z,13.90
2023-09-28T00:54:13.692Z,13.70
2023-09-28T00:56:46.404Z,13.70
2023-09-28T00:59:19.803Z,13.70
2023-09-28T01:01:52.418Z,13.60
2023-09-28T01:04:24.899Z,13.50
2023-09-28T01:06:57.562Z,13.40
2023-09-28T01:09:31.190Z,13.40
2023-09-28T01:12:05.598Z,13.40
2023-09-28T01:14:37.898Z,13.30
2023-09-28T01:17:10.471Z,13.30
2023-09-28T01:19:43.217Z,13.40
2023-09-28T01:22:15.815Z,13.60
2023-09-28T01:24:49.312Z,13.40
2023-09-28T01:27:21.593Z,13.30
2023-09-28T01:29:54.595Z,13.20
2023-09-28T01:32:26.828Z,13.20
2023-09-28T01:34:58.952Z,13.20
2023-09-28T01:37:36.000Z,13.20
2023-09-28T01:40:09.676Z,13.20
2023-09-28T01:42:41.750Z,13.20
2023-09-28T01:45:13.804Z,13.30
2023-09-28T01:47:46.046Z,13.30
2023-09-28T01:50:18.351Z,13.40
2023-09-28T01:52:51.571Z,13.30
2023-09-28T01:55:24.742Z,13.30
2023-09-28T01:57:56.984Z,13.30
2023-09-28T02:00:29.115Z,13.40
2023-09-28T02:03:10.367Z,13.40
2023-09-28T02:05:42.581Z,13.60
2023-09-28T02:08:15.046Z,13.60
2023-09-28T02:10:47.481Z,13.50
2023-09-28T02:13:20.376Z,13.60
2023-09-28T02:15:52.516Z,13.60
2023-09-28T02:18:25.118Z,13.70
2023-09-28T02:20:57.433Z,13.60
2023-09-28T02:23:29.924Z,13.60
2023-09-28T02:26:07.666Z,13.70
2023-09-28T02:28:39.835Z,13.60
2023-09-28T02:31:11.981Z,13.70
2023-09-28T02:33:44.964Z,13.70
2023-09-28T02:36:17.021Z,13.70
2023-09-28T02:38:49.465Z,13.70
2023-09-28T02:41:21.946Z,13.70
2023-09-28T02:43:54.215Z,13.80
2023-09-28T02:46:28.007Z,13.70
2023-09-28T02:49:00.316Z,13.80
2023-09-28T02:51:32.400Z,13.80
2023-09-28T02:54:05.412Z,13.80
2023-09-28T02:56:37.492Z,13.80
2023-09-28T02:59:10.825Z,13.80
2023-09-28T03:01:43.014Z,13.80
2023-09-28T03:04:16.843Z,13.80
2023-09-28T03:06:50.283Z,13.80
2023-09-28T03:09:22.758Z,13.80
2023-09-28T03:11:55.511Z,13.70
2023-09-28T03:14:28.190Z,13.70
2023-09-28T03:17:00.909Z,13.70
2023-09-28T03:19:32.977Z,13.70
2023-09-28T03:22:05.580Z,13.70
2023-09-28T03:24:37.846Z,13.80
2023-09-28T03:27:11.069Z,13.80
2023-09-28T03:29:43.775Z,13.80
2023-09-28T03:32:16.534Z,13.70
2023-09-28T03:34:48.742Z,13.80
2023-09-28T03:37:20.944Z,13.80
2023-09-28T03:39:53.027Z,13.80
2023-09-28T03:42:25.166Z,13.80
2023-09-28T03:44:57.336Z,13.80
2023-09-28T03:47:29.991Z,13.70
2023-09-28T03:50:02.125Z,13.60
2023-09-28T03:52:35.852Z,13.50
2023-09-28T03:55:12.259Z,13.50
2023-09-28T03:57:44.301Z,13.60
2023-09-28T04:00:17.734Z,13.60
2023-09-28T04:02:53.673Z,13.60
2023-09-28T04:05:27.331Z,13.70
2023-09-28T04:07:59.692Z,13.60
2023-09-28T04:10:33.252Z,13.60
2023-09-28T04:13:05.389Z,13.60
2023-09-28T04:15:37.640Z,13.60
2023-09-28T04:18:09.798Z,13.50
2023-09-28T04:20:42.945Z,13.50
2023-09-28T04:23:15.418Z,13.60
2023-09-28T04:25:47.697Z,13.50
2023-09-28T04:28:19.964Z,13.50
2023-09-28T04:30:52.941Z,13.50
2023-09-28T04:33:25.894Z,13.50
2023-09-28T04:35:58.271Z,13.50
2023-09-28T04:38:30.646Z,13.50
2023-09-28T04:41:02.787Z,13.50
2023-09-28T04:43:34.988Z,13.50
2023-09-28T04:46:07.259Z,13.40
2023-09-28T04:48:40.017Z,13.50
2023-09-28T04:51:12.257Z,13.50
2023-09-28T04:53:44.792Z,13.40
2023-09-28T04:56:17.106Z,13.40
2023-09-28T04:58:49.781Z,13.40
2023-09-28T05:01:22.800Z,13.30
2023-09-28T05:03:55.470Z,13.40
2023-09-28T05:06:28.851Z,13.40
2023-09-28T05:09:01.710Z,13.30
2023-09-28T05:11:33.985Z,13.30
2023-09-28T05:14:06.144Z,13.30
2023-09-28T05:16:38.260Z,13.20
2023-09-28T05:19:10.391Z,13.20
2023-09-28T05:21:42.485Z,13.20
2023-09-28T05:24:14.733Z,13.30
2023-09-28T05:26:46.838Z,13.30
2023-09-28T05:29:19.060Z,13.30
2023-09-28T05:31:51.448Z,13.30
2023-09-28T05:34:23.919Z,13.30
2023-09-28T05:36:56.163Z,13.30
2023-09-28T05:39:28.977Z,13.20
2023-09-28T05:42:02.881Z,13.10
2023-09-28T05:44:35.262Z,13.30
2023-09-28T05:47:07.965Z,13.40
2023-09-28T05:49:40.225Z,13.40
2023-09-28T05:52:12.454Z,13.30
2023-09-28T05:54:44.924Z,13.30
2023-09-28T05:57:17.058Z,13.40
2023-09-28T05:59:49.557Z,13.40
2023-09-28T06:02:24.103Z,13.40
2023-09-28T06:04:56.723Z,13.40
2023-09-28T06:07:29.852Z,13.60
2023-09-28T06:10:01.996Z,13.70
2023-09-28T06:12:34.082Z,13.90
2023-09-28T06:15:08.397Z,13.90
2023-09-28T06:17:40.849Z,14.10
2023-09-28T06:20:13.248Z,14.10
2023-09-28T06:22:45.515Z,14.10
2023-09-28T06:25:17.597Z,14.20
2023-09-28T06:27:49.869Z,14.20
2023-09-28T06:30:21.981Z,14.30
2023-09-28T06:32:54.068Z,14.40
2023-09-28T06:35:26.573Z,14.50
2023-09-28T06:37:59.631Z,14.60
2023-09-28T06:40:31.757Z,14.70
2023-09-28T06:43:03.931Z,14.90
2023-09-28T06:45:36.127Z,14.90
2023-09-28T06:48:18.614Z,15.00
2023-09-28T06:50:53.090Z,15.10
2023-09-28T06:53:25.987Z,15.20
2023-09-28T06:56:13.495Z,15.30
2023-09-28T06:58:46.250Z,15.40
2023-09-28T07:01:18.397Z,15.50
2023-09-28T07:03:54.502Z,15.60
2023-09-28T07:06:26.875Z,15.70
2023-09-28T07:08:59.035Z,15.80
2023-09-28T07:11:31.131Z,15.90
2023-09-28T07:14:03.964Z,16.00
2023-09-28T07:16:38.127Z,16.00
2023-09-28T07:19:11.610Z,16.10
2023-09-28T07:21:43.796Z,16.20
2023-09-28T07:24:19.200Z,16.30
2023-09-28T07:26:52.425Z,16.50
2023-09-28T07:29:24.536Z,16.80
2023-09-28T07:31:56.678Z,17.00
2023-09-28T07:34:28.797Z,17.10
2023-09-28T07:37:00.839Z,17.10
2023-09-28T07:39:32.975Z,17.10
2023-09-28T07:42:08.706Z,17.10
2023-09-28T07:44:41.693Z,17.10
2023-09-28T07:47:15.294Z,17.20
2023-09-28T07:49:47.758Z,17.30
2023-09-28T07:52:19.982Z,17.50
2023-09-28T07:54:52.207Z,17.70
2023-09-28T07:57:24.473Z,17.90
2023-09-28T07:59:56.781Z,18.10
2023-09-28T08:02:29.135Z,18.20
2023-09-28T08:05:03.096Z,18.40
2023-09-28T08:07:35.434Z,18.50
2023-09-28T08:10:10.822Z,18.60
2023-09-28T08:12:44.861Z,18.70
2023-09-28T08:15:27.319Z,18.90
2023-09-28T08:18:09.788Z,18.90
2023-09-28T08:20:51.692Z,19.00
2023-09-28T08:23:27.991Z,19.10
2023-09-28T08:26:00.804Z,19.10
2023-09-28T08:28:33.634Z,19.20
2023-09-28T08:31:06.221Z,19.30
2023-09-28T08:33:38.780Z,19.30
2023-09-28T08:36:11.291Z,19.40
2023-09-28T08:38:43.741Z,19.50
2023-09-28T08:41:17.846Z,19.60
2023-09-28T08:43:54.053Z,19.70
2023-09-28T08:46:44.220Z,19.70
2023-09-28T08:49:18.671Z,19.80
2023-09-28T08:51:52.924Z,20.00
2023-09-28T08:54:25.437Z,20.00
2023-09-28T08:56:58.941Z,20.10
2023-09-28T08:59:32.089Z,20.30
2023-09-28T09:02:05.075Z,20.30
2023-09-28T09:04:37.167Z,20.30
2023-09-28T09:07:09.487Z,20.20
2023-09-28T09:09:42.695Z,20.10
2023-09-28T09:12:14.823Z,20.20
2023-09-28T09:14:47.284Z,20.20
2023-09-28T09:17:19.514Z,20.20
2023-09-28T09:19:55.386Z,20.10
2023-09-28T09:22:34.972Z,20.20
2023-09-28T09:25:14.330Z,20.30
2023-09-28T09:27:46.914Z,20.40
2023-09-28T09:30:19.144Z,20.50
2023-09-28T09:32:52.131Z,20.50
2023-09-28T09:35:26.753Z,20.60
2023-09-28T09:37:58.988Z,20.60
2023-09-28T09:40:32.532Z,20.60
2023-09-28T09:43:10.631Z,20.70
2023-09-28T09:45:43.032Z,20.80
2023-09-28T09:48:15.577Z,20.90
2023-09-28T09:50:48.752Z,21.00
2023-09-28T09:53:22.161Z,21.00
2023-09-28T09:56:00.023Z,21.00
2023-09-28T09:58:39.007Z,21.10
2023-09-28T10:01:12.678Z,21.10
2023-09-28T10:03:49.531Z,21.20
2023-09-28T10:06:22.967Z,21.20
2023-09-28T10:08:55.828Z,21.40
2023-09-28T10:11:28.424Z,21.40
2023-09-28T10:14:01.106Z,21.60
2023-09-28T10:16:35.555Z,21.60
2023-09-28T10:19:08.138Z,21.70
2023-09-28T10:21:40.678Z,21.70
2023-09-28T10:24:13.847Z,21.80
2023-09-28T10:26:48.785Z,21.90
2023-09-28T10:29:21.675Z,21.90
2023-09-28T10:31:59.135Z,21.90
2023-09-28T10:34:33.105Z,22.00
2023-09-28T10:37:09.565Z,22.00
2023-09-28T10:39:43.045Z,22.10
2023-09-28T10:42:21.493Z,22.30
2023-09-28T10:44:55.850Z,22.20
2023-09-28T10:47:32.542Z,22.30
2023-09-28T10:50:09.904Z,22.40
2023-09-28T10:52:43.801Z,22.60
2023-09-28T10:55:16.638Z,22.70
2023-09-28T10:57:49.014Z,22.70
2023-09-28T11:00:24.406Z,22.60
2023-09-28T11:02:57.416Z,22.60
2023-09-28T11:05:30.712Z,22.60
2023-09-28T11:08:05.560Z,22.60
2023-09-28T11:10:37.857Z,22.70
2023-09-28T11:13:09.926Z,22.80
2023-09-28T11:15:42.706Z,22.90
2023-09-28T11:18:14.868Z,23.10
2023-09-28T11:20:47.047Z,23.20
2023-09-28T11:23:19.276Z,23.80
2023-09-28T11:25:51.754Z,24.30
2023-09-28T11:28:24.297Z,25.10
2023-09-28T11:31:09.990Z,26.10
2023-09-28T11:33:43.688Z,26.90
2023-09-28T11:36:19.155Z,27.70
2023-09-28T11:38:53.981Z,27.90
2023-09-28T11:41:27.985Z,28.80
2023-09-28T11:44:00.369Z,29.40
2023-09-28T11:46:33.590Z,30.10
2023-09-28T11:49:06.261Z,30.40
2023-09-28T11:51:39.414Z,30.40
2023-09-28T11:54:15.975Z,30.00
2023-09-28T11:56:51.228Z,30.20
2023-09-28T11:59:24.984Z,30.40
2023-09-28T12:01:59.235Z,30.30
2023-09-28T12:04:31.529Z,30.10
2023-09-28T12:07:03.744Z,29.90
2023-09-28T12:09:36.253Z,30.00
2023-09-28T12:12:08.337Z,29.80
2023-09-28T12:14:40.432Z,29.90
2023-09-28T12:17:12.671Z,30.30
2023-09-28T12:19:44.835Z,31.30
2023-09-28T12:22:17.951Z,31.50
2023-09-28T12:24:50.146Z,32.40
2023-09-28T12:27:23.007Z,33.20
2023-09-28T12:29:55.189Z,33.30
2023-09-28T12:32:30.015Z,33.40
2023-09-28T12:35:02.680Z,33.70
2023-09-28T12:37:37.963Z,33.40
2023-09-28T12:40:14.445Z,33.90
2023-09-28T12:42:46.568Z,33.80
2023-09-28T12:45:18.702Z,34.00
2023-09-28T12:47:50.971Z,34.40
2023-09-28T12:50:23.227Z,34.70
2023-09-28T12:52:55.477Z,34.20
2023-09-28T12:55:27.558Z,34.40
2023-09-28T12:58:00.192Z,35.10
2023-09-28T13:00:33.846Z,35.50
2023-09-28T13:03:10.420Z,35.40
2023-09-28T13:05:42.801Z,35.60
2023-09-28T13:08:16.766Z,35.10
2023-09-28T13:10:50.197Z,34.40
2023-09-28T13:13:22.401Z,34.50
2023-09-28T13:15:55.940Z,33.90
2023-09-28T13:18:28.868Z,35.00
2023-09-28T13:21:01.559Z,35.70
2023-09-28T13:23:34.662Z,36.20
2023-09-28T13:26:07.229Z,36.60
2023-09-28T13:28:40.270Z,36.20
2023-09-28T13:36:20.313Z,36.50
2023-09-28T13:38:52.499Z,37.00
2023-09-28T13:43:57.766Z,37.40
2023-09-28T13:46:30.074Z,38.10
2023-09-28T13:49:03.451Z,38.30
2023-09-28T13:51:35.771Z,38.50
2023-09-28T13:54:09.454Z,38.40
2023-09-28T13:56:41.930Z,37.60
2023-09-28T13:59:15.601Z,38.00
2023-09-28T14:01:48.673Z,38.10
2023-09-28T14:04:21.484Z,38.10
2023-09-28T14:06:56.328Z,38.70
2023-09-28T14:09:29.156Z,39.20
2023-09-28T14:12:01.928Z,39.70
2023-09-28T14:14:34.292Z,39.90
2023-09-28T14:17:10.238Z,39.60
2023-09-28T14:19:45.450Z,39.10
2023-09-28T14:22:17.599Z,39.40
2023-09-28T14:24:50.415Z,38.90
2023-09-28T14:27:22.593Z,38.30
2023-09-28T14:29:54.662Z,38.80
2023-09-28T14:32:27.679Z,39.10
2023-09-28T14:35:00.122Z,39.50
2023-09-28T14:37:35.816Z,39.30
2023-09-28T14:40:16.589Z,37.50
2023-09-28T14:42:49.171Z,37.60
2023-09-28T14:45:21.831Z,36.40
2023-09-28T14:47:54.086Z,34.70
2023-09-28T14:50:28.293Z,32.80
2023-09-28T14:53:00.554Z,31.20
2023-09-28T14:55:32.732Z,30.40
2023-09-28T14:58:05.541Z,29.80
2023-09-28T15:00:38.307Z,29.40
2023-09-28T15:03:11.321Z,29.10
2023-09-28T15:05:45.370Z,28.80
2023-09-28T15:08:18.569Z,28.50
2023-09-28T15:10:50.964Z,28.20
2023-09-28T15:13:23.303Z,27.90
2023-09-28T15:15:55.753Z,27.70
2023-09-28T15:18:27.850Z,27.50
2023-09-28T15:20:59.944Z,27.30
2023-09-28T15:23:32.083Z,27.10
2023-09-28T15:26:04.808Z,26.90
2023-09-28T15:28:37.846Z,26.70
2023-09-28T15:31:10.599Z,26.50
2023-09-28T15:33:42.748Z,26.40
2023-09-28T15:36:15.623Z,26.20
2023-09-28T15:38:48.227Z,26.10
2023-09-28T15:41:42.288Z,25.90
2023-09-28T15:44:18.110Z,25.70
2023-09-28T15:46:51.997Z,25.50
2023-09-28T15:49:24.642Z,25.30
2023-09-28T15:51:56.763Z,25.30
2023-09-28T15:54:28.880Z,25.20
2023-09-28T15:57:02.103Z,25.10
2023-09-28T15:59:34.708Z,25.00
2023-09-28T16:02:07.434Z,24.80
2023-09-28T16:04:40.253Z,24.70
2023-09-28T16:07:12.478Z,24.60
2023-09-28T16:09:45.113Z,24.50
2023-09-28T16:12:19.175Z,24.40
2023-09-28T16:14:51.332Z,24.20
2023-09-28T16:17:23.735Z,24.00
2023-09-28T16:19:56.173Z,23.80
2023-09-28T16:22:28.848Z,23.70
2023-09-28T16:25:00.921Z,23.60
2023-09-28T16:27:33.147Z,23.40
2023-09-28T16:30:05.595Z,23.10
2023-09-28T16:32:38.337Z,22.80
2023-09-28T16:35:10.700Z,22.60
2023-09-28T16:37:43.469Z,22.40
2023-09-28T16:40:15.671Z,22.20
2023-09-28T16:42:47.923Z,22.00
2023-09-28T16:45:20.147Z,21.90
2023-09-28T16:47:52.349Z,21.80
2023-09-28T16:50:24.563Z,21.60
2023-09-28T16:52:57.022Z,21.40
2023-09-28T16:55:30.656Z,21.30
2023-09-28T16:58:03.233Z,21.20
2023-09-28T17:00:35.425Z,21.00
2023-09-28T17:03:08.045Z,20.90
2023-09-28T17:05:40.633Z,20.80
2023-09-28T17:08:13.056Z,20.70
2023-09-28T17:10:46.038Z,20.70
2023-09-28T17:13:18.525Z,20.50
2023-09-28T17:15:51.500Z,20.40
2023-09-28T17:18:24.320Z,20.20
2023-09-28T17:20:56.573Z,20.10
2023-09-28T17:23:28.805Z,19.90
2023-09-28T17:26:00.890Z,19.80
2023-09-28T17:28:33.094Z,19.60
2023-09-28T17:31:05.554Z,19.50
2023-09-28T17:33:37.716Z,19.40
2023-09-28T17:36:10.722Z,19.40
2023-09-28T17:38:42.882Z,19.30
2023-09-28T17:41:15.043Z,19.20
2023-09-28T17:43:47.161Z,19.10
2023-09-28T17:46:19.426Z,19.00
2023-09-28T17:48:51.544Z,19.00
2023-09-28T17:51:25.324Z,18.90
2023-09-28T17:53:57.480Z,18.80
2023-09-28T17:56:29.615Z,18.90
2023-09-28T17:59:01.833Z,18.90
2023-09-28T18:01:33.995Z,18.80
2023-09-28T18:04:06.689Z,18.70
2023-09-28T18:06:38.906Z,18.50
2023-09-28T18:09:11.684Z,18.40
2023-09-28T18:11:44.792Z,18.40
2023-09-28T18:14:17.638Z,18.40
2023-09-28T18:16:50.960Z,18.30
2023-09-28T18:19:23.082Z,18.30
2023-09-28T18:21:55.141Z,18.20
2023-09-28T18:24:27.245Z,18.10
2023-09-28T18:26:59.374Z,18.00
2023-09-28T18:29:31.579Z,17.90
2023-09-28T18:32:03.990Z,17.90
2023-09-28T18:34:36.776Z,17.80
2023-09-28T18:37:08.848Z,17.70
2023-09-28T18:39:42.190Z,17.60
2023-09-28T18:42:15.136Z,17.60
2023-09-28T18:44:47.335Z,17.60
2023-09-28T18:47:19.664Z,17.60
2023-09-28T18:49:52.030Z,17.80
2023-09-28T18:52:24.172Z,17.80
2023-09-28T18:54:56.390Z,17.70
2023-09-28T18:57:28.563Z,17.60
2023-09-28T19:00:01.453Z,17.50
2023-09-28T19:02:33.944Z,17.40
2023-09-28T19:05:07.410Z,17.30
2023-09-28T19:07:40.612Z,17.20
2023-09-28T19:10:13.456Z,17.10
2023-09-28T19:12:45.873Z,17.10
2023-09-28T19:15:18.306Z,17.00
2023-09-28T19:17:55.874Z,16.90
2023-09-28T19:20:28.207Z,16.90
2023-09-28T19:23:00.970Z,16.70
2023-09-28T19:25:36.452Z,16.70
2023-09-28T19:28:09.585Z,16.70
2023-09-28T19:30:41.779Z,16.60
2023-09-28T19:33:13.950Z,16.50
2023-09-28T19:35:46.484Z,16.50
2023-09-28T19:38:19.511Z,16.50
2023-09-28T19:40:53.455Z,16.90
2023-09-28T19:43:25.666Z,16.90
2023-09-28T19:45:58.696Z,16.70
2023-09-28T19:48:30.833Z,16.60
2023-09-28T19:51:03.346Z,16.40
2023-09-28T19:53:36.246Z,16.40
2023-09-28T19:56:09.617Z,16.30
2023-09-28T19:58:41.991Z,16.30
2023-09-28T20:01:14.453Z,16.20
2023-09-28T20:03:46.824Z,16.10
2023-09-28T20:06:18.966Z,16.00
2023-09-28T20:08:51.915Z,16.00
2023-09-28T20:11:24.132Z,15.90
2023-09-28T20:13:57.554Z,15.80
2023-09-28T20:16:30.130Z,15.80
2023-09-28T20:19:02.270Z,15.80
2023-09-28T20:21:34.913Z,15.80
2023-09-28T20:24:07.335Z,15.80
2023-09-28T20:26:39.509Z,15.70
2023-09-28T20:29:11.599Z,16.10
2023-09-28T20:31:43.751Z,15.90
2023-09-28T20:34:16.029Z,15.90
2023-09-28T20:36:48.160Z,15.80
2023-09-28T20:39:20.499Z,15.70
2023-09-28T20:41:53.172Z,15.70
2023-09-28T20:44:25.319Z,15.60
2023-09-28T20:46:57.402Z,15.70
2023-09-28T20:49:29.495Z,15.70
2023-09-28T20:52:01.530Z,15.60
2023-09-28T20:54:34.185Z,15.50
2023-09-28T20:57:06.263Z,15.40
2023-09-28T20:59:38.362Z,15.50
2023-09-28T21:02:10.461Z,15.70
2023-09-28T21:04:42.570Z,15.80
2023-09-28T21:07:15.154Z,15.70
2023-09-28T21:09:47.224Z,15.70
2023-09-28T21:12:19.758Z,15.60
2023-09-28T21:14:52.023Z,15.60
2023-09-28T21:17:25.245Z,15.60
2023-09-28T21:19:57.699Z,15.50
2023-09-28T21:22:29.776Z,15.50
2023-09-28T21:25:02.484Z,15.50
2023-09-28T21:27:34.710Z,15.40
2023-09-28T21:30:08.012Z,15.30
2023-09-28T21:32:40.368Z,15.40
2023-09-28T21:35:12.622Z,15.30
2023-09-28T21:37:45.563Z,15.40
2023-09-28T21:40:17.835Z,15.20
2023-09-28T21:42:49.962Z,15.20
2023-09-28T21:45:22.576Z,15.30
2023-09-28T21:47:54.775Z,15.20
2023-09-28T21:50:27.193Z,15.20
2023-09-28T21:52:59.321Z,15.10
2023-09-28T21:55:32.205Z,15.00
2023-09-28T21:58:04.361Z,14.90
2023-09-28T22:00:40.968Z,14.90
2023-09-28T22:03:13.099Z,14.80
2023-09-28T22:05:45.639Z,14.70
2023-09-28T22:08:17.791Z,14.60
2023-09-28T22:10:51.041Z,14.50
2023-09-28T22:13:23.205Z,14.50
2023-09-28T22:15:55.478Z,14.40
2023-09-28T22:18:27.702Z,14.50
2023-09-28T22:21:00.159Z,14.50
2023-09-28T22:23:32.345Z,14.50
2023-09-28T22:26:04.527Z,14.50
2023-09-28T22:28:36.687Z,14.60
2023-09-28T22:31:08.823Z,14.60
2023-09-28T22:33:40.953Z,14.50
2023-09-28T22:36:13.182Z,14.50
2023-09-28T22:38:45.364Z,14.50
2023-09-28T22:41:17.965Z,14.50
2023-09-28T22:43:50.955Z,14.50
2023-09-28T22:46:23.287Z,14.40
2023-09-28T22:48:58.290Z,14.40
2023-09-28T22:51:30.786Z,14.40
2023-09-28T22:54:02.917Z,14.40
2023-09-28T22:56:35.074Z,14.30
2023-09-28T22:59:07.395Z,14.30
2023-09-28T23:01:39.718Z,14.00
2023-09-28T23:04:11.936Z,14.10
2023-09-28T23:06:44.127Z,14.10
2023-09-28T23:09:16.211Z,14.10
2023-09-28T23:11:49.019Z,13.90
2023-09-28T23:14:21.855Z,13.80
2023-09-28T23:17:01.507Z,13.80
2023-09-28T23:19:36.748Z,13.80
2023-09-28T23:22:09.259Z,13.80
2023-09-28T23:24:41.348Z,13.70
2023-09-28T23:27:13.465Z,13.70
2023-09-28T23:29:46.085Z,13.70
2023-09-28T23:32:18.263Z,13.70
2023-09-28T23:34:50.342Z,13.50
2023-09-28T23:37:22.669Z,13.70
2023-09-28T23:39:54.776Z,13.70
2023-09-28T23:42:26.868Z,13.60
2023-09-28T23:44:59.059Z,13.60
2023-09-28T23:47:31.232Z,13.70
2023-09-28T23:50:04.055Z,13.40
2023-09-28T23:52:37.461Z,13.50
2023-09-28T23:55:13.904Z,13.50
2023-09-28T23:57:46.143Z,13.40
